Covell, Illinois
Current Conditions -  °F | °C
As of 9:58 AM on Sunday 23 Nov 2014 (Local Time) from KBMI Reporting Station
Light Rain Light Rain  
Wind Chill: 42°   Ceiling: 1200
Heat Index: 48°   Visibility: 10mi
Dew Point: 46°   Wind: 17mph
Humidity: 93%   Direction: 170°S
Pressure: 29.7"   Gusts: NA
Location:  40.4664°N, 88.9822°W
Report Text: KBMI 231558Z 17015KT 10SM -RA BKN012 09/08 A2970 RMK AO2 P0000
Loading
Personal Weather Stations






























Interactive Weather Map New forecast layout! Learn more

10-Day Weather Forecast

Advertisements
Track Severe Weather on mobile